createdAt,value
2017-10-16T00:01:57.347Z,38.40
2017-10-16T00:04:23.768Z,49.43
2017-10-16T00:06:50.268Z,42.73
2017-10-16T00:09:16.646Z,41.57
2017-10-16T00:11:43.121Z,40.00
2017-10-16T00:14:10.170Z,40.83
2017-10-16T00:16:36.603Z,40.10
2017-10-16T00:19:03.039Z,46.13
2017-10-16T00:21:29.473Z,44.17
2017-10-16T00:23:55.908Z,40.07
2017-10-16T00:26:22.344Z,44.80
2017-10-16T00:28:48.778Z,43.07
2017-10-16T00:31:15.949Z,47.57
2017-10-16T00:33:42.316Z,43.40
2017-10-16T00:36:08.688Z,50.67
2017-10-16T00:38:35.085Z,41.50
2017-10-16T00:41:01.524Z,44.40
2017-10-16T00:43:27.984Z,40.77
2017-10-16T00:45:54.389Z,42.67
2017-10-16T00:48:21.587Z,41.27
2017-10-16T00:50:48.022Z,34.07
2017-10-16T00:53:14.458Z,37.70
2017-10-16T00:55:40.892Z,31.27
2017-10-16T00:58:07.326Z,35.80
2017-10-16T01:00:33.762Z,38.50
2017-10-16T01:03:00.196Z,34.43
2017-10-16T01:05:27.450Z,27.10
2017-10-16T01:07:53.884Z,30.80
2017-10-16T01:10:20.320Z,28.60
2017-10-16T01:12:46.753Z,39.13
2017-10-16T01:15:13.191Z,33.70
2017-10-16T01:17:39.625Z,30.23
2017-10-16T01:20:06.059Z,26.23
2017-10-16T01:22:33.316Z,34.30
2017-10-16T01:24:59.731Z,21.33
2017-10-16T01:27:26.184Z,26.60
2017-10-16T01:29:52.635Z,25.53
2017-10-16T01:32:19.015Z,30.47
2017-10-16T01:34:45.487Z,28.50
2017-10-16T01:37:11.841Z,27.50
2017-10-16T01:39:39.017Z,25.03
2017-10-16T01:42:05.409Z,26.23
2017-10-16T01:44:31.842Z,22.27
2017-10-16T01:46:58.287Z,23.37
2017-10-16T01:49:24.664Z,25.07
2017-10-16T01:51:51.100Z,23.53
2017-10-16T01:54:17.566Z,26.20
2017-10-16T01:56:44.690Z,25.10
2017-10-16T01:59:11.168Z,23.83
2017-10-16T02:01:37.602Z,26.10
2017-10-16T02:04:04.036Z,30.60
2017-10-16T02:06:30.471Z,29.60
2017-10-16T02:08:56.905Z,25.77
2017-10-16T02:11:23.340Z,24.77
2017-10-16T02:13:50.493Z,21.43
2017-10-16T02:16:16.926Z,25.93
2017-10-16T02:18:43.361Z,27.03
2017-10-16T02:21:09.899Z,32.40
2017-10-16T02:23:36.334Z,26.50
2017-10-16T02:26:02.768Z,39.53
2017-10-16T02:28:29.203Z,38.50
2017-10-16T02:30:56.419Z,36.50
2017-10-16T02:33:22.891Z,36.03
2017-10-16T02:35:49.282Z,39.13
2017-10-16T02:38:15.717Z,43.37
2017-10-16T02:40:42.197Z,39.63
2017-10-16T02:43:08.641Z,35.80
2017-10-16T02:45:35.066Z,32.07
2017-10-16T02:48:02.321Z,30.10
2017-10-16T02:50:28.680Z,41.13
2017-10-16T02:52:55.087Z,35.83
2017-10-16T02:55:21.522Z,40.00
2017-10-16T02:57:47.922Z,36.57
2017-10-16T03:00:14.391Z,44.53
2017-10-16T03:02:40.826Z,44.07
2017-10-16T03:05:07.978Z,33.10
2017-10-16T03:07:34.413Z,40.77
2017-10-16T03:10:00.852Z,33.40
2017-10-16T03:12:27.283Z,39.03
2017-10-16T03:14:53.717Z,30.27
2017-10-16T03:17:20.208Z,33.70
2017-10-16T03:19:46.690Z,35.77
2017-10-16T03:22:13.840Z,29.07
2017-10-16T03:24:40.276Z,28.40
2017-10-16T03:27:06.684Z,33.57
2017-10-16T03:29:33.144Z,27.37
2017-10-16T03:31:59.580Z,29.67
2017-10-16T03:34:26.117Z,35.17
2017-10-16T03:36:52.551Z,31.60
2017-10-16T03:39:19.703Z,38.20
2017-10-16T03:41:46.144Z,32.00
2017-10-16T03:44:12.582Z,26.97
2017-10-16T03:46:39.008Z,30.37
2017-10-16T03:49:05.443Z,34.40
2017-10-16T03:51:31.877Z,34.50
2017-10-16T03:53:58.312Z,29.70
2017-10-16T03:56:25.567Z,30.03
2017-10-16T03:58:51.952Z,36.40
2017-10-16T04:01:18.332Z,35.13
2017-10-16T04:03:44.773Z,30.63
2017-10-16T04:06:11.203Z,29.93
2017-10-16T04:08:37.637Z,25.93
2017-10-16T04:11:04.027Z,26.40
2017-10-16T04:13:31.327Z,28.00
2017-10-16T04:15:57.785Z,21.57
2017-10-16T04:18:24.196Z,27.87
2017-10-16T04:20:50.632Z,26.27
2017-10-16T04:23:17.066Z,27.10
2017-10-16T04:25:43.501Z,30.70
2017-10-16T04:28:09.937Z,26.20
2017-10-16T04:30:37.209Z,30.73
2017-10-16T04:33:03.624Z,26.20
2017-10-16T04:35:30.162Z,26.17
2017-10-16T04:37:56.596Z,26.53
2017-10-16T04:40:23.031Z,46.20
2017-10-16T04:42:49.466Z,35.63
2017-10-16T04:45:15.900Z,42.47
2017-10-16T04:47:43.169Z,34.23
2017-10-16T04:50:09.691Z,34.00
2017-10-16T04:52:36.146Z,33.70
2017-10-16T04:55:02.619Z,34.30
2017-10-16T04:57:29.098Z,33.23
2017-10-16T04:59:55.606Z,36.30
2017-10-16T05:02:22.047Z,44.73
2017-10-16T05:04:49.328Z,44.67
2017-10-16T05:07:15.760Z,45.27
2017-10-16T05:09:42.195Z,52.97
2017-10-16T05:12:09.861Z,55.23
2017-10-16T05:14:36.292Z,65.57
2017-10-16T05:17:02.680Z,55.47
2017-10-16T05:19:29.387Z,55.27
2017-10-16T05:21:55.905Z,53.27
2017-10-16T05:24:22.360Z,58.47
2017-10-16T05:26:48.774Z,51.13
2017-10-16T05:29:15.168Z,51.97
2017-10-16T05:31:41.954Z,37.57
2017-10-16T05:34:08.590Z,38.10
2017-10-16T05:36:35.024Z,38.50
2017-10-16T05:39:01.413Z,30.87
2017-10-16T05:41:27.896Z,44.37
2017-10-16T05:43:54.330Z,49.17
2017-10-16T05:46:20.718Z,40.53
2017-10-16T05:48:47.199Z,48.93
2017-10-16T05:51:13.634Z,40.80
2017-10-16T05:53:40.073Z,50.97
2017-10-16T05:56:07.030Z,47.60
2017-10-16T05:58:33.450Z,41.13
2017-10-16T06:00:59.894Z,43.80
2017-10-16T06:03:26.321Z,38.57
2017-10-16T06:05:53.063Z,37.83
2017-10-16T06:08:19.497Z,41.87
2017-10-16T06:10:46.138Z,39.37
2017-10-16T06:13:12.780Z,41.70
2017-10-16T06:15:39.214Z,44.83
2017-10-16T06:18:05.788Z,43.50
2017-10-16T06:20:32.388Z,39.07
2017-10-16T06:22:58.767Z,44.17
2017-10-16T06:25:25.155Z,39.60
2017-10-16T06:27:51.681Z,40.33
2017-10-16T06:30:18.128Z,64.93
2017-10-16T06:32:44.787Z,45.30
2017-10-16T06:35:11.167Z,47.77
2017-10-16T06:37:37.580Z,52.17
2017-10-16T06:40:04.065Z,44.00
2017-10-16T06:42:30.506Z,41.00
2017-10-16T06:44:57.000Z,71.97
2017-10-16T06:47:24.137Z,83.53
2017-10-16T06:49:50.630Z,102.93
2017-10-16T06:52:17.067Z,81.87
2017-10-16T06:54:43.499Z,67.87
2017-10-16T06:57:09.934Z,60.77
2017-10-16T06:59:36.573Z,47.30
2017-10-16T07:02:03.005Z,41.07
2017-10-16T07:04:29.395Z,43.37
2017-10-16T07:06:55.878Z,47.53
2017-10-16T07:09:22.312Z,49.87
2017-10-16T07:11:48.918Z,48.47
2017-10-16T07:14:15.346Z,36.53
2017-10-16T07:16:41.822Z,43.17
2017-10-16T07:19:08.257Z,37.07
2017-10-16T07:21:34.999Z,46.70
2017-10-16T07:24:01.557Z,57.30
2017-10-16T07:26:28.072Z,45.50
2017-10-16T07:28:54.508Z,51.20
2017-10-16T07:31:20.941Z,48.63
2017-10-16T07:33:47.377Z,50.70
2017-10-16T07:36:13.915Z,52.40
2017-10-16T07:38:40.557Z,49.63
2017-10-16T07:41:07.091Z,42.50
2017-10-16T07:43:33.796Z,45.70
2017-10-16T07:46:00.252Z,93.57
2017-10-16T07:48:26.671Z,36.90
2017-10-16T07:50:53.136Z,39.33
2017-10-16T07:53:19.579Z,45.27
2017-10-16T07:55:46.115Z,32.83
2017-10-16T07:58:12.629Z,36.43
2017-10-16T08:00:39.019Z,48.73
2017-10-16T08:03:05.414Z,37.60
2017-10-16T08:05:31.952Z,52.03
2017-10-16T08:07:58.386Z,35.53
2017-10-16T08:10:24.821Z,39.67
2017-10-16T08:12:51.257Z,40.87
2017-10-16T08:15:17.775Z,46.00
2017-10-16T08:17:44.227Z,94.23
2017-10-16T08:20:10.663Z,30.60
2017-10-16T08:22:37.113Z,28.87
2017-10-16T08:25:03.587Z,32.10
2017-10-16T08:27:30.069Z,70.57
2017-10-16T08:29:56.520Z,69.13
2017-10-16T08:32:23.024Z,68.17
2017-10-16T08:34:49.477Z,29.03
2017-10-16T08:37:16.068Z,24.60
2017-10-16T08:39:43.165Z,29.30
2017-10-16T08:42:09.600Z,20.70
2017-10-16T08:44:36.035Z,22.87
2017-10-16T08:47:02.674Z,29.83
2017-10-16T08:49:29.109Z,25.33
2017-10-16T08:51:55.543Z,25.97
2017-10-16T08:54:21.978Z,25.83
2017-10-16T08:56:48.414Z,27.23
2017-10-16T08:59:14.811Z,20.60
2017-10-16T09:01:41.180Z,22.20
2017-10-16T09:04:07.532Z,24.97
2017-10-16T09:06:33.948Z,21.33
2017-10-16T09:09:00.383Z,26.90
2017-10-16T09:11:26.817Z,21.10
2017-10-16T09:13:53.206Z,22.23
2017-10-16T09:16:19.687Z,22.00
2017-10-16T09:18:46.483Z,27.30
2017-10-16T09:21:12.966Z,17.93
2017-10-16T09:23:39.402Z,25.77
2017-10-16T09:26:05.836Z,17.40
2017-10-16T09:28:32.274Z,16.77
2017-10-16T09:30:58.656Z,19.73
2017-10-16T09:33:25.550Z,15.47
2017-10-16T09:35:52.086Z,17.77
2017-10-16T09:38:18.541Z,15.40
2017-10-16T09:40:45.898Z,15.03
2017-10-16T09:43:12.620Z,10.40
2017-10-16T09:45:39.567Z,14.80
2017-10-16T09:48:06.002Z,13.93
2017-10-16T09:50:32.528Z,13.00
2017-10-16T09:52:58.959Z,12.40
2017-10-16T09:55:25.409Z,13.00
2017-10-16T09:57:51.852Z,18.03
2017-10-16T10:00:18.380Z,13.53
2017-10-16T10:02:45.228Z,10.40
2017-10-16T10:05:11.674Z,11.53
2017-10-16T10:07:38.409Z,12.93
2017-10-16T10:10:05.349Z,11.13
2017-10-16T10:12:31.733Z,12.17
2017-10-16T10:14:58.238Z,12.27
2017-10-16T10:17:24.756Z,10.90
2017-10-16T10:19:51.210Z,29.43
2017-10-16T10:22:17.728Z,16.23
2017-10-16T10:24:44.440Z,15.03
2017-10-16T10:27:10.909Z,12.97
2017-10-16T10:29:37.391Z,13.00
2017-10-16T10:32:03.869Z,11.97
2017-10-16T10:34:30.311Z,15.13
2017-10-16T10:36:56.800Z,12.73
2017-10-16T10:39:23.233Z,12.20
2017-10-16T10:41:49.716Z,13.33
2017-10-16T10:44:16.153Z,13.53
2017-10-16T10:46:42.588Z,17.60
2017-10-16T10:49:08.971Z,18.20
2017-10-16T10:51:35.355Z,10.20
2017-10-16T10:54:01.813Z,12.50
2017-10-16T10:56:28.839Z,11.80
2017-10-16T10:58:55.303Z,14.63
2017-10-16T11:01:22.224Z,13.00
2017-10-16T11:03:48.656Z,11.40
2017-10-16T11:06:15.110Z,16.73
2017-10-16T11:08:42.404Z,14.80
2017-10-16T11:11:08.884Z,13.00
2017-10-16T11:13:35.424Z,40.87
2017-10-16T11:16:02.473Z,12.50
2017-10-16T11:18:28.902Z,11.40
2017-10-16T11:20:55.397Z,16.03
2017-10-16T11:23:22.491Z,10.17
2017-10-16T11:25:48.981Z,12.43
2017-10-16T11:28:15.336Z,11.40
2017-10-16T11:30:42.299Z,11.53
2017-10-16T11:33:08.684Z,12.00
2017-10-16T11:35:35.159Z,11.77
2017-10-16T11:38:01.612Z,11.13
2017-10-16T11:40:28.048Z,14.30
2017-10-16T11:42:54.432Z,11.00
2017-10-16T11:45:20.916Z,10.50
2017-10-16T11:47:47.349Z,20.73
2017-10-16T11:50:13.988Z,12.57
2017-10-16T11:52:40.547Z,26.73
2017-10-16T11:55:06.960Z,15.00
2017-10-16T11:57:33.356Z,10.03
2017-10-16T11:59:59.814Z,11.87
2017-10-16T12:02:26.212Z,8.77
2017-10-16T12:04:52.700Z,9.07
2017-10-16T12:07:19.337Z,9.80
2017-10-16T12:09:45.876Z,10.73
2017-10-16T12:12:12.332Z,8.90
2017-10-16T12:14:38.850Z,9.20
2017-10-16T12:17:05.285Z,8.80
2017-10-16T12:19:31.880Z,10.20
2017-10-16T12:21:58.804Z,7.77
2017-10-16T12:24:25.306Z,9.60
2017-10-16T12:26:51.741Z,9.20
2017-10-16T12:29:18.175Z,9.10
2017-10-16T12:31:44.903Z,43.17
2017-10-16T12:34:11.472Z,8.40
2017-10-16T12:36:42.654Z,8.90
2017-10-16T12:39:11.491Z,8.87
2017-10-16T12:41:37.927Z,15.73
2017-10-16T12:44:06.861Z,9.43
2017-10-16T12:46:35.403Z,9.90
2017-10-16T12:49:01.847Z,12.00
2017-10-16T12:51:28.251Z,8.87
2017-10-16T12:53:54.692Z,8.50
2017-10-16T12:56:21.556Z,8.73
2017-10-16T12:58:48.090Z,9.00
2017-10-16T13:01:14.572Z,8.70
2017-10-16T13:03:41.343Z,11.57
2017-10-16T13:06:07.782Z,7.70
2017-10-16T13:08:34.197Z,7.70
2017-10-16T13:11:01.122Z,7.80
2017-10-16T13:13:27.517Z,9.67
2017-10-16T13:15:54.056Z,7.93
2017-10-16T13:18:21.105Z,9.30
2017-10-16T13:20:47.539Z,8.03
2017-10-16T13:23:14.754Z,12.53
2017-10-16T13:25:41.638Z,10.53
2017-10-16T13:28:08.072Z,7.60
2017-10-16T13:30:34.513Z,8.00
2017-10-16T13:33:00.943Z,12.50
2017-10-16T13:35:27.377Z,7.70
2017-10-16T13:37:53.764Z,13.50
2017-10-16T13:40:20.246Z,11.70
2017-10-16T13:42:47.215Z,7.87
2017-10-16T13:45:13.730Z,11.97
2017-10-16T13:47:40.165Z,7.50
2017-10-16T13:50:06.716Z,10.67
2017-10-16T13:55:06.106Z,7.60
2017-10-16T13:57:32.834Z,9.00
2017-10-16T13:59:59.325Z,8.80
2017-10-16T14:02:25.916Z,10.20
2017-10-16T14:04:53.481Z,8.73
2017-10-16T14:07:19.997Z,8.27
2017-10-16T14:09:46.424Z,8.73
2017-10-16T14:12:12.983Z,8.40
2017-10-16T14:14:39.542Z,9.33
2017-10-16T14:17:06.053Z,9.07
2017-10-16T14:19:35.903Z,7.93
2017-10-16T14:22:02.388Z,7.80
2017-10-16T14:24:28.941Z,9.07
2017-10-16T14:26:55.804Z,10.03
2017-10-16T14:29:22.425Z,15.93
2017-10-16T14:31:49.603Z,11.43
2017-10-16T14:34:16.353Z,15.77
2017-10-16T14:36:42.862Z,9.50
2017-10-16T14:39:09.292Z,13.13
2017-10-16T14:41:35.726Z,11.63
2017-10-16T14:44:02.162Z,19.60
2017-10-16T14:46:28.698Z,12.13
2017-10-16T14:48:55.177Z,15.00
2017-10-16T14:51:21.568Z,15.93
2017-10-16T14:53:48.002Z,16.33
2017-10-16T14:56:14.438Z,30.33
2017-10-16T14:58:40.821Z,21.10
2017-10-16T15:01:07.308Z,27.50
2017-10-16T15:03:33.743Z,24.60
2017-10-16T15:06:00.179Z,32.60
2017-10-16T15:08:26.562Z,33.83
2017-10-16T15:10:53.045Z,39.13
2017-10-16T15:13:19.481Z,32.20
2017-10-16T15:15:46.571Z,39.03
2017-10-16T15:18:17.352Z,31.07
2017-10-16T15:20:43.810Z,31.27
2017-10-16T15:33:16.583Z,44.60
2017-10-16T15:35:43.731Z,40.10
2017-10-16T15:38:10.233Z,39.60
2017-10-16T15:40:36.668Z,56.57
2017-10-16T15:43:03.835Z,48.90
2017-10-16T15:45:30.405Z,66.10
2017-10-16T15:47:56.791Z,62.27
2017-10-16T15:50:24.816Z,50.93
2017-10-16T15:52:51.636Z,46.97
2017-10-16T15:57:50.327Z,44.20
2017-10-16T16:00:16.781Z,63.00
2017-10-16T16:02:43.269Z,49.70
2017-10-16T16:05:09.735Z,46.10
2017-10-16T16:07:36.168Z,46.17
2017-10-16T16:10:02.605Z,40.73
2017-10-16T16:12:29.038Z,58.93
2017-10-16T16:14:55.473Z,65.80
2017-10-16T16:17:21.911Z,36.77
2017-10-16T16:19:48.347Z,49.93
2017-10-16T16:22:14.777Z,51.00
2017-10-16T16:24:41.213Z,67.80
2017-10-16T16:27:07.752Z,53.00
2017-10-16T16:29:34.186Z,56.17
2017-10-16T16:32:00.620Z,45.83
2017-10-16T16:34:27.056Z,41.00
2017-10-16T16:36:53.489Z,44.50
2017-10-16T16:39:19.882Z,41.77
2017-10-16T16:41:46.306Z,33.23
2017-10-16T16:44:12.814Z,32.17
2017-10-16T16:46:39.228Z,29.00
2017-10-16T16:49:06.483Z,34.73
2017-10-16T16:51:32.932Z,34.40
2017-10-16T16:53:59.355Z,40.57
2017-10-16T16:56:25.774Z,44.43
2017-10-16T16:58:52.226Z,45.93
2017-10-16T17:01:18.642Z,49.57
2017-10-16T17:03:45.083Z,36.43
2017-10-16T17:06:12.196Z,54.20
2017-10-16T17:08:39.702Z,43.67
2017-10-16T17:11:06.075Z,45.53
2017-10-16T17:13:32.572Z,53.33
2017-10-16T17:15:59.013Z,43.53
2017-10-16T17:18:25.414Z,39.97
2017-10-16T17:20:51.832Z,41.10
2017-10-16T17:23:18.313Z,39.47
2017-10-16T17:25:44.746Z,39.67
2017-10-16T17:28:11.183Z,48.13
2017-10-16T17:30:37.718Z,38.33
2017-10-16T17:33:04.077Z,61.07
2017-10-16T17:35:30.588Z,61.73
2017-10-16T17:37:57.025Z,43.90
2017-10-16T17:40:24.174Z,45.63
2017-10-16T17:42:50.712Z,49.83
2017-10-16T17:45:17.146Z,46.40
2017-10-16T17:47:43.573Z,46.40
2017-10-16T17:50:09.969Z,51.03
2017-10-16T17:52:36.439Z,47.53
2017-10-16T17:55:02.885Z,53.43
2017-10-16T17:57:30.038Z,43.00
2017-10-16T17:59:56.472Z,55.70
2017-10-16T18:02:22.958Z,49.63
2017-10-16T18:04:49.445Z,49.60
2017-10-16T18:07:15.827Z,50.80
2017-10-16T18:09:42.315Z,47.80
2017-10-16T18:12:08.773Z,45.80
2017-10-16T18:14:35.901Z,50.87
2017-10-16T18:17:02.355Z,51.47
2017-10-16T18:19:28.756Z,53.23
2017-10-16T18:21:55.167Z,62.93
2017-10-16T18:24:21.649Z,47.53
2017-10-16T18:26:48.082Z,53.80
2017-10-16T18:29:14.512Z,51.30
2017-10-16T18:31:41.663Z,49.23
2017-10-16T18:34:08.051Z,54.50
2017-10-16T18:36:34.483Z,49.73
2017-10-16T18:39:00.914Z,52.63
2017-10-16T18:41:27.392Z,60.33
2017-10-16T18:43:53.832Z,59.03
2017-10-16T18:46:20.254Z,52.23
2017-10-16T18:48:47.416Z,50.83
2017-10-16T18:51:13.858Z,50.83
2017-10-16T18:53:40.294Z,50.80
2017-10-16T18:56:06.727Z,53.57
2017-10-16T18:58:33.161Z,48.10
2017-10-16T19:00:59.579Z,46.60
2017-10-16T19:03:26.023Z,54.37
2017-10-16T19:05:53.166Z,43.97
2017-10-16T19:08:19.616Z,52.20
2017-10-16T19:10:46.007Z,41.87
2017-10-16T19:13:12.487Z,46.07
2017-10-16T19:15:38.923Z,52.57
2017-10-16T19:18:05.326Z,44.67
2017-10-16T19:20:31.895Z,44.83
2017-10-16T19:22:58.943Z,40.90
2017-10-16T19:25:25.378Z,40.47
2017-10-16T19:27:51.813Z,40.10
2017-10-16T19:30:18.248Z,50.93
2017-10-16T19:32:44.682Z,37.90
2017-10-16T19:35:11.175Z,40.17
2017-10-16T19:37:37.654Z,36.50
2017-10-16T19:40:04.806Z,45.33
2017-10-16T19:42:31.241Z,45.63
2017-10-16T19:44:57.631Z,36.63
2017-10-16T19:47:24.066Z,43.67
2017-10-16T19:49:50.546Z,39.47
2017-10-16T19:52:16.980Z,36.30
2017-10-16T19:54:43.517Z,35.90
2017-10-16T19:57:10.669Z,33.90
2017-10-16T19:59:37.104Z,40.43
2017-10-16T20:02:03.539Z,39.13
2017-10-16T20:04:29.924Z,43.80
2017-10-16T20:06:56.411Z,53.37
2017-10-16T20:09:22.846Z,38.10
2017-10-16T20:11:49.227Z,49.33
2017-10-16T20:14:16.552Z,37.13
2017-10-16T20:16:42.970Z,38.90
2017-10-16T20:19:09.422Z,37.03
2017-10-16T20:21:35.807Z,38.73
2017-10-16T20:24:02.272Z,36.90
2017-10-16T20:26:28.707Z,38.30
2017-10-16T20:28:55.147Z,39.20
2017-10-16T20:31:22.327Z,38.27
2017-10-16T20:33:48.820Z,41.43
2017-10-16T20:36:15.216Z,40.17
2017-10-16T20:38:41.681Z,41.03
2017-10-16T20:41:08.091Z,41.20
2017-10-16T20:43:34.568Z,47.83
2017-10-16T20:46:01.005Z,49.27
2017-10-16T20:48:28.249Z,40.47
2017-10-16T20:50:54.693Z,42.60
2017-10-16T20:53:21.127Z,44.20
2017-10-16T20:55:47.502Z,39.93
2017-10-16T20:58:13.997Z,40.53
2017-10-16T21:00:40.431Z,39.20
2017-10-16T21:03:06.867Z,46.23
2017-10-16T21:05:34.034Z,37.37
2017-10-16T21:08:00.469Z,38.83
2017-10-16T21:10:26.893Z,40.07
2017-10-16T21:12:53.322Z,51.53
2017-10-16T21:15:19.758Z,40.33
2017-10-16T21:17:46.211Z,42.30
2017-10-16T21:20:12.627Z,37.00
2017-10-16T21:22:39.881Z,31.03
2017-10-16T21:25:06.316Z,37.13
2017-10-16T21:27:32.702Z,43.27
2017-10-16T21:29:59.185Z,41.70
2017-10-16T21:32:25.538Z,39.07
2017-10-16T21:34:51.954Z,64.37
2017-10-16T21:37:18.489Z,36.93
2017-10-16T21:39:45.539Z,40.40
2017-10-16T21:42:11.973Z,45.03
2017-10-16T21:44:38.426Z,41.90
2017-10-16T21:47:04.842Z,39.33
2017-10-16T21:49:31.282Z,39.10
2017-10-16T21:51:57.663Z,36.63
2017-10-16T21:54:24.100Z,37.40
2017-10-16T21:56:51.243Z,35.17
2017-10-16T21:59:17.683Z,33.43
2017-10-16T22:01:44.170Z,39.00
2017-10-16T22:04:10.549Z,38.93
2017-10-16T22:06:37.032Z,41.00
2017-10-16T22:09:03.465Z,38.70
2017-10-16T22:11:29.908Z,38.67
2017-10-16T22:13:56.343Z,41.00
2017-10-16T22:16:22.778Z,40.67
2017-10-16T22:18:49.212Z,42.80
2017-10-16T22:21:16.672Z,47.40
2017-10-16T22:23:43.106Z,42.87
2017-10-16T22:26:09.522Z,43.37
2017-10-16T22:28:35.963Z,41.50
2017-10-16T22:31:02.411Z,45.00
2017-10-16T22:33:28.850Z,40.13
2017-10-16T22:35:55.282Z,39.37
2017-10-16T22:38:22.536Z,41.10
2017-10-16T22:40:48.969Z,44.60
2017-10-16T22:43:15.423Z,50.33
2017-10-16T22:45:41.839Z,45.60
2017-10-16T22:48:08.274Z,38.33
2017-10-16T22:50:34.708Z,41.73
2017-10-16T22:53:01.143Z,35.10
2017-10-16T22:55:28.397Z,42.50
2017-10-16T22:57:54.834Z,41.23
2017-10-16T23:00:21.289Z,37.90
2017-10-16T23:02:47.702Z,40.10
2017-10-16T23:05:14.138Z,40.10
2017-10-16T23:07:40.515Z,39.10
2017-10-16T23:10:07.009Z,36.57
2017-10-16T23:12:34.159Z,37.70
2017-10-16T23:15:00.594Z,39.67
2017-10-16T23:17:27.028Z,44.20
2017-10-16T23:19:53.463Z,38.50
2017-10-16T23:22:19.863Z,40.53
2017-10-16T23:24:46.283Z,40.20
2017-10-16T23:27:12.660Z,34.50
2017-10-16T23:29:39.836Z,37.77
2017-10-16T23:32:06.216Z,37.63
2017-10-16T23:34:32.684Z,32.40
2017-10-16T23:36:59.126Z,42.90
2017-10-16T23:39:25.559Z,39.77
2017-10-16T23:41:52.009Z,40.40
2017-10-16T23:44:18.425Z,40.87
2017-10-16T23:46:45.634Z,41.23
2017-10-16T23:49:12.063Z,39.03
2017-10-16T23:51:38.446Z,38.73
2017-10-16T23:54:04.888Z,33.03
2017-10-16T23:56:31.315Z,40.70
2017-10-16T23:58:57.751Z,34.47
